GABSGFLL

Guest
Details From GABS - Bamako Senou
To GFLL - FREETOWN LUNGI
Flight Number -
Tags generated
Created
Modified
Stats Distance 389 nm / 720 km
Max Altitude 34,900 ft / 10,638 m
Waypoints 8
Social Downloads 0
Likes 0
Share VATSIM

Download

Looking for another format? Having issues loading an existing format? Contact us
Advertisement - Login to hide

Notes

Basic altitude profile: - Ascent Rate: 2500ft/min - Ascent Speed: 250kts - Cruise Altitude: 35000ft - Cruise Speed: 420kts - Descent Rate: 1500ft/min - Descent Speed: 250kts Options: - Use NATs: yes - Use PACOTS: yes - Use low airways: yes - Use high airways: yes

Route

GABS UBATI UB727 KIMKA B727 LGI GFLL

ID Type Via Altitude Latitude Longitude Leg Dist Tot Dist Heading (true) Name
O GABS APT - 0 ft / 0 m 12.53354˚ -7.94994˚ - 0 nm - Bamako Senou
UBATI FIX - 28,100 ft / 8,565 m 11.74694˚ -9.02278˚ 78 nm 78 nm 233° / 233° -
BUNAP FIX UB727 (AWY-HI) 34,900 ft / 10,638 m 10.25000˚ -11.00000˚ 147 nm 225 nm 233° / 232° -
AMKAX FIX UB727 (AWY-HI) 28,500 ft / 8,687 m 9.95167˚ -11.40000˚ 29 nm 255 nm 233° / 233° -
KIMKA FIX UB727 (AWY-HI) 24,000 ft / 7,315 m 9.66667˚ -11.80000˚ 29 nm 284 nm 234° / 234° -
AGSIL FIX B727 (AWY-LO) 7,000 ft / 2,134 m 8.83462˚ -12.89248˚ 81 nm 366 nm 232° / 232° -
LGI VOR B727 (AWY-LO) 7,000 ft / 2,134 m 8.61718˚ -13.19137˚ 22 nm 388 nm 234° / 234° FREETOWN LUNGI VOR-DME
O GFLL APT - 0 ft / 0 m 8.61644˚ -13.19549˚ 0 nm 388 nm 260° / 260° FREETOWN LUNGI

Altitude Profile

Advertisement - Login to hide

Weather


0- 5 10 15 20 25 30 35+ Temperature / ° C

Clouds and Precipitation
Forecast for 2017-12-13 12:00 UTC. Updated 2 hours ago

Ground ~20,000 ft ~40,000 ft Winds

GABS

Details ICAO GABS (BKO)
Name Bamako Senou
Region Mali
Timezone Africa/Bamako (UTC+0.0)
Stats Elevation 1,246 ft / 380 m (AMSL)
Location 12.533544° -7.949943°
Runways 1
Magnetic Variation 4.161° W

METAR

GABS 131100Z 36007KT 6000 NSC 29/01 Q1015 NOSIG

Decode

TAF

TAF GABS 130500Z 1306/1412 02006G16KT 8000 NSC PROB30 TEMPO 1316/1322 4500 HZ

Decode

Departure Runways

ID Width Length Bearing (true) Bearing (mag) Surface Threshold Offset Overrun Length
06 148 ft / 45 m 8,888 ft / 2,709 m 56.51° 60.67° Asphalt 0 ft / 0 m 327 ft / 100 m
24 148 ft / 45 m 8,888 ft / 2,709 m 236.51° 240.67° Asphalt 0 ft / 0 m 327 ft / 100 m

GFLL

Details ICAO GFLL (FNA)
Name FREETOWN LUNGI
Region Sierra Leone
Timezone Africa/Freetown (UTC+0.0)
Stats Elevation 84 ft / 26 m (AMSL)
Location 8.616443° -13.195489°
Runways 1
Magnetic Variation 7.110° W

METAR

Not found

TAF

TAF TAF GFLL 122200Z 1300/1406 12002KT 3000 BR NSC TEMPO 1306/1311 VRB03KT 5000 BECMG 1314/1316 26008KT 7000 HZ NSC TEMPO 1320/1324 12003KT 4000 BR NSC

Decode

Destination Runways

ID Width Length Bearing (true) Bearing (mag) Surface Threshold Offset Overrun Length
12 150 ft / 46 m 10,507 ft / 3,203 m 107.14° 114.25° Asphalt 0 ft / 0 m 394 ft / 120 m
30 150 ft / 46 m 10,507 ft / 3,203 m 287.14° 294.25° Asphalt 0 ft / 0 m 197 ft / 60 m